Time;durP1;ratioP1;P1;durP2;ratioP2;P2;SDS_P1;SDS_P2;PMS_P1;PMS_P2;Temp;Humidity;BMP_temperature;BMP_pressure;BME280_temperature;BME280_humidity;BME280_pressure;Samples;Min_cycle;Max_cycle;Signal;HPM_P1;HPM_P2
2022/11/22 00:00:34;;;;;;;39.90;19.77;;;;;;;0.11;93.33;96913.69;5021738;28;20068;-83
2022/11/22 00:02:59;;;;;;;37.85;17.05;;;;;;;0.94;91.48;96918.53;5020909;28;20033;-83
2022/11/22 00:05:25;;;;;;;41.63;18.50;;;;;;;0.74;89.95;96897.94;5026708;28;20051;-84
2022/11/22 00:07:50;;;;;;;37.88;20.00;;;;;;;0.44;90.42;96918.31;5022710;28;20067;-83
2022/11/22 00:10:16;;;;;;;40.55;20.48;;;;;;;0.57;91.11;96912.81;5006952;28;20037;-84
2022/11/22 00:12:42;;;;;;;32.28;14.95;;;;;;;1.34;89.61;96906.09;5021768;28;20041;-84
2022/11/22 00:15:08;;;;;;;38.75;18.40;;;;;;;1.45;87.84;96916.53;5024839;28;20037;-84
2022/11/22 00:17:34;;;;;;;38.20;19.65;;;;;;;0.62;89.16;96892.72;5003359;28;20347;-84
2022/11/22 00:20:00;;;;;;;32.47;15.43;;;;;;;1.13;89.56;96881.31;5026032;28;20061;-84
2022/11/22 00:22:25;;;;;;;31.38;17.38;;;;;;;1.07;88.74;96911.13;5005968;28;20084;-83
2022/11/22 00:24:51;;;;;;;38.08;19.20;;;;;;;0.77;90.10;96877.25;5022479;28;20021;-84
2022/11/22 00:27:18;;;;;;;32.15;17.27;;;;;;;1.18;89.85;96909.50;5027461;28;20051;-84
2022/11/22 00:29:43;;;;;;;32.17;14.95;;;;;;;1.40;88.77;96905.94;5024014;28;20030;-84
2022/11/22 00:32:09;;;;;;;32.15;17.45;;;;;;;1.42;87.75;96888.09;5025158;28;20084;-83
2022/11/22 00:34:35;;;;;;;30.58;16.25;;;;;;;1.03;89.17;96899.50;4992821;28;20509;-83
2022/11/22 00:37:01;;;;;;;38.60;18.00;;;;;;;0.67;89.88;96897.28;5008952;28;20039;-83
2022/11/22 00:39:26;;;;;;;30.42;16.20;;;;;;;1.27;89.26;96894.91;5009330;28;20029;-84
2022/11/22 00:41:51;;;;;;;31.42;15.77;;;;;;;0.75;90.74;96884.56;5011407;28;20829;-84
2022/11/22 00:44:17;;;;;;;31.20;17.23;;;;;;;1.07;90.30;96899.84;5025037;28;20079;-84
2022/11/22 00:46:42;;;;;;;32.88;15.90;;;;;;;1.47;88.65;96896.06;5021030;28;20484;-84
2022/11/22 00:49:07;;;;;;;39.75;19.50;;;;;;;1.41;87.65;96891.78;5023954;28;20037;-84
2022/11/22 00:51:33;;;;;;;27.10;15.40;;;;;;;1.66;87.01;96867.69;5023788;28;20116;-84
2022/11/22 00:53:58;;;;;;;34.53;16.88;;;;;;;1.07;88.29;96890.13;5009786;28;20073;-84
2022/11/22 00:56:24;;;;;;;34.63;20.83;;;;;;;1.29;88.41;96879.75;5005712;28;20041;-84
2022/11/22 00:58:49;;;;;;;36.13;18.52;;;;;;;0.91;88.98;96888.28;4992074;28;20063;-84
2022/11/22 01:01:14;;;;;;;31.00;16.60;;;;;;;0.97;90.83;96882.06;4993140;28;20437;-84
2022/11/22 01:03:40;;;;;;;37.20;16.90;;;;;;;0.81;91.54;96882.81;5022667;28;20084;-83
2022/11/22 01:06:06;;;;;;;35.75;17.42;;;;;;;0.74;90.64;96869.84;5007275;28;20390;-84
2022/11/22 01:08:32;;;;;;;44.60;21.48;;;;;;;0.11;93.61;96852.59;5008257;28;20026;-83
2022/11/22 01:10:58;;;;;;;41.67;20.15;;;;;;;0.27;94.97;96868.41;4990802;28;20029;-82
2022/11/22 01:13:26;;;;;;;41.85;20.92;;;;;;;0.63;92.84;96870.66;5024210;28;20029;-83
2022/11/22 01:15:51;;;;;;;45.33;22.95;;;;;;;0.79;91.39;96855.22;5024788;28;20041;-83
2022/11/22 01:18:17;;;;;;;33.58;17.63;;;;;;;1.22;90.57;96858.06;5011007;28;20385;-83
2022/11/22 01:20:42;;;;;;;38.78;19.73;;;;;;;0.54;91.67;96830.09;5007374;28;20529;-83
2022/11/22 01:23:08;;;;;;;35.22;17.42;;;;;;;0.95;90.45;96821.13;5026151;28;20029;-83
2022/11/22 01:25:33;;;;;;;29.95;15.32;;;;;;;1.38;89.48;96847.56;4997604;28;20040;-83
2022/11/22 01:27:59;;;;;;;28.83;15.93;;;;;;;1.59;87.70;96822.41;5004028;28;20460;-84
2022/11/22 01:30:24;;;;;;;33.63;19.20;;;;;;;1.52;86.92;96837.53;5007292;28;20143;-84
2022/11/22 01:32:49;;;;;;;33.47;17.70;;;;;;;1.16;88.99;96816.97;5025867;28;20955;-84
2022/11/22 01:35:15;;;;;;;30.20;17.08;;;;;;;1.03;89.21;96781.31;5019146;28;20079;-84
2022/11/22 01:37:40;;;;;;;34.13;17.67;;;;;;;1.32;89.61;96813.56;5026855;28;20033;-83
2022/11/22 01:40:06;;;;;;;28.95;15.40;;;;;;;1.40;89.13;96807.88;5008682;28;20056;-84
2022/11/22 01:42:50;;;;;;;33.65;17.40;;;;;;;1.34;88.62;96814.91;5022411;28;20033;-84
2022/11/22 01:45:37;;;;;;;35.90;17.90;;;;;;;0.86;89.76;96814.66;5026759;28;20025;-84
2022/11/22 01:48:26;;;;;;;37.70;18.25;;;;;;;1.29;90.24;96816.69;5023049;28;20440;-83
2022/11/22 01:50:58;;;;;;;34.80;18.42;;;;;;;1.03;89.61;96804.16;5018897;28;20029;-84
2022/11/22 01:53:36;;;;;;;33.00;16.40;;;;;;;1.21;88.27;96778.47;5025374;28;20037;-84
2022/11/22 01:56:05;;;;;;;30.75;16.90;;;;;;;1.55;88.39;96810.78;5022588;28;20025;-83
2022/11/22 01:58:33;;;;;;;38.28;19.60;;;;;;;0.26;90.96;96774.19;5024800;28;20549;-83
2022/11/22 02:01:00;;;;;;;36.97;19.27;;;;;;;0.46;91.68;96801.59;5023392;28;20112;-83
2022/11/22 02:03:28;;;;;;;34.90;18.92;;;;;;;1.03;90.66;96820.72;5025343;28;20061;-84
2022/11/22 02:05:55;;;;;;;30.17;16.13;;;;;;;0.82;91.11;96797.78;4989185;28;20030;-84
2022/11/22 02:08:35;;;;;;;31.80;17.17;;;;;;;1.16;91.25;96836.16;5022023;28;21608;-83
2022/11/22 02:11:02;;;;;;;34.72;17.45;;;;;;;1.49;88.23;96827.47;5023954;28;20036;-84
2022/11/22 02:13:33;;;;;;;34.22;17.23;;;;;;;1.09;89.78;96834.75;5006991;28;20064;-84
2022/11/22 02:15:59;;;;;;;29.10;15.80;;;;;;;1.73;88.30;96830.72;5023464;28;20386;-83
2022/11/22 02:18:25;;;;;;;35.00;19.10;;;;;;;1.51;87.86;96828.03;5023046;28;20029;-83
2022/11/22 02:20:52;;;;;;;32.70;18.05;;;;;;;1.68;87.45;96825.41;5019825;28;20381;-84
2022/11/22 02:23:39;;;;;;;32.20;17.58;;;;;;;1.45;88.37;96819.28;5023628;28;20044;-83
2022/11/22 02:26:05;;;;;;;28.92;15.73;;;;;;;1.07;89.12;96782.44;5020226;28;20520;-83
2022/11/22 02:28:35;;;;;;;38.83;19.40;;;;;;;1.10;88.91;96804.81;4998008;28;20041;-83
2022/11/22 02:31:00;;;;;;;33.95;18.88;;;;;;;0.85;90.62;96802.56;5017324;28;20061;-83
2022/11/22 02:33:26;;;;;;;33.85;17.52;;;;;;;1.66;89.04;96811.72;5018548;28;20401;-83
2022/11/22 02:35:51;;;;;;;35.60;20.08;;;;;;;1.11;88.98;96806.41;5004284;28;20040;-83
2022/11/22 02:38:23;;;;;;;29.70;16.48;;;;;;;0.75;91.99;96795.31;5023342;28;20029;-83
2022/11/22 02:41:07;;;;;;;35.33;17.83;;;;;;;1.38;89.15;96804.72;4995911;28;20041;-83
2022/11/22 02:43:38;;;;;;;38.70;19.50;;;;;;;1.01;90.09;96811.47;5017748;28;20037;-84
2022/11/22 02:46:05;;;;;;;32.30;18.23;;;;;;;1.47;88.75;96809.34;5020531;28;20108;-84
2022/11/22 02:48:31;;;;;;;35.38;15.73;;;;;;;1.57;87.81;96815.78;5016532;28;20026;-83
2022/11/22 02:50:56;;;;;;;31.45;15.02;;;;;;;1.97;87.39;96805.78;5017805;28;20108;-83
2022/11/22 02:53:22;;;;;;;27.90;14.32;;;;;;;2.07;85.92;96798.06;5014840;28;20397;-83
2022/11/22 02:55:47;;;;;;;30.50;15.18;;;;;;;2.03;86.03;96813.50;5003631;28;20034;-83
2022/11/22 02:58:12;;;;;;;27.13;14.13;;;;;;;1.84;87.29;96808.78;5022515;28;20037;-83
2022/11/22 03:00:38;;;;;;;24.80;14.15;;;;;;;2.19;86.05;96814.50;5019938;28;20040;-83
2022/11/22 03:03:04;;;;;;;22.73;12.65;;;;;;;1.82;87.48;96810.84;5026662;28;20478;-83
2022/11/22 03:05:30;;;;;;;26.20;14.48;;;;;;;1.31;87.16;96767.31;5021356;28;20087;-84
2022/11/22 03:07:55;;;;;;;29.70;15.73;;;;;;;1.59;87.84;96804.00;5024606;28;20025;-83
2022/11/22 03:10:20;;;;;;;25.98;15.20;;;;;;;1.96;87.17;96805.03;5021458;28;20041;-84
2022/11/22 03:12:46;;;;;;;22.90;14.77;;;;;;;2.00;85.68;96800.06;5028858;28;20482;-83
2022/11/22 03:15:11;;;;;;;23.30;12.82;;;;;;;1.77;87.15;96795.03;5004666;28;20033;-83
2022/11/22 03:17:37;;;;;;;21.77;12.25;;;;;;;1.82;87.95;96806.41;5023241;28;20124;-83
2022/11/22 03:20:03;;;;;;;23.25;12.80;;;;;;;2.20;86.19;96808.22;5024763;28;20508;-84
2022/11/22 03:22:28;;;;;;;21.38;12.10;;;;;;;1.68;87.65;96781.50;5024716;28;20548;-85
2022/11/22 03:24:54;;;;;;;22.45;12.82;;;;;;;2.01;86.90;96812.19;5028006;28;20112;-84
2022/11/22 03:27:19;;;;;;;22.67;13.40;;;;;;;1.98;86.39;96804.78;5027000;28;20037;-85
2022/11/22 03:29:45;;;;;;;22.77;14.52;;;;;;;1.80;86.33;96765.59;5006858;28;20033;-84
2022/11/22 03:32:10;;;;;;;23.15;12.85;;;;;;;1.49;87.75;96769.66;4991848;28;20128;-84
2022/11/22 03:34:35;;;;;;;26.80;14.32;;;;;;;1.84;86.82;96808.78;5010223;28;20076;-84
2022/11/22 03:37:01;;;;;;;28.00;14.27;;;;;;;1.58;88.26;96786.63;5021102;28;20124;-84
2022/11/22 03:39:26;;;;;;;24.13;13.13;;;;;;;1.70;88.30;96781.25;5010356;28;20039;-84
2022/11/22 03:41:54;;;;;;;31.48;16.00;;;;;;;1.41;88.08;96799.78;5006120;28;20558;-83
2022/11/22 03:44:20;;;;;;;26.42;12.80;;;;;;;1.56;88.17;96764.22;5020390;28;20068;-83
2022/11/22 03:46:45;;;;;;;28.60;15.25;;;;;;;1.24;89.31;96801.63;5009141;28;20190;-84
2022/11/22 03:49:11;;;;;;;27.15;15.18;;;;;;;1.02;90.26;96776.31;5025633;28;20037;-83
2022/11/22 03:51:36;;;;;;;24.65;14.45;;;;;;;1.15;91.00;96787.31;5019855;28;20041;-84
2022/11/22 03:54:01;;;;;;;23.55;12.68;;;;;;;1.14;90.64;96787.53;4999989;28;20507;-83
2022/11/22 03:56:27;;;;;;;30.48;14.07;;;;;;;1.20;91.68;96790.00;4997881;28;20021;-83
2022/11/22 03:58:52;;;;;;;30.63;15.75;;;;;;;0.98;91.64;96798.84;5019584;28;20231;-84
2022/11/22 04:01:18;;;;;;;24.83;13.15;;;;;;;1.71;89.73;96811.75;4999022;28;20496;-83
2022/11/22 04:03:43;;;;;;;30.98;16.23;;;;;;;1.00;91.38;96825.66;5019104;28;20041;-83
2022/11/22 04:06:08;;;;;;;25.40;13.75;;;;;;;1.84;88.67;96809.59;5018971;28;20041;-84
2022/11/22 04:08:34;;;;;;;23.60;12.77;;;;;;;1.37;89.99;96814.44;5014500;28;20053;-84
2022/11/22 04:10:59;;;;;;;21.73;13.82;;;;;;;1.09;91.80;96817.13;5019933;28;20037;-83
2022/11/22 04:15:05;;;;;;;26.88;14.45;;;;;;;1.59;89.45;96809.25;5015155;28;20725;-84
2022/11/22 04:16:10;;;;;;;25.48;14.10;;;;;;;1.51;88.81;96807.00;5018334;28;20099;-83
2022/11/22 04:18:35;;;;;;;21.20;12.88;;;;;;;1.65;88.67;96810.09;5017311;28;20037;-84
2022/11/22 04:25:12;;;;;;;36.50;17.60;;;;;;;1.05;90.56;96808.13;5004879;28;20517;-83
2022/11/22 04:26:30;;;;;;;30.95;15.88;;;;;;;1.50;88.72;96823.84;5004829;28;20034;-83
2022/11/22 04:28:55;;;;;;;25.35;15.10;;;;;;;1.34;90.16;96833.31;5025811;28;20051;-83
2022/11/22 04:34:04;;;;;;;20.60;13.20;;;;;;;1.59;89.49;96840.78;5007363;28;20049;-83
2022/11/22 04:36:30;;;;;;;28.65;16.33;;;;;;;1.24;90.01;96830.53;5012299;28;20037;-83
2022/11/22 04:38:55;;;;;;;21.30;13.32;;;;;;;1.75;89.51;96847.06;5006842;28;20128;-82
2022/11/22 04:41:21;;;;;;;19.63;13.15;;;;;;;1.75;88.38;96821.56;5021420;28;20102;-83
2022/11/22 04:46:30;;;;;;;26.40;14.60;;;;;;;1.71;88.34;96840.69;5017381;28;20458;-83
2022/11/22 04:48:56;;;;;;;27.95;15.75;;;;;;;1.33;89.76;96821.19;5020665;28;20120;-83
2022/11/22 04:54:05;;;;;;;19.85;12.20;;;;;;;1.93;88.22;96812.59;5023211;28;20444;-83
2022/11/22 04:56:30;;;;;;;20.42;12.57;;;;;;;2.05;87.53;96826.44;5021003;28;20038;-83
2022/11/22 04:58:56;;;;;;;23.73;13.27;;;;;;;1.69;88.92;96821.72;5004110;28;20625;-83
2022/11/22 05:01:21;;;;;;;23.10;13.30;;;;;;;2.28;86.39;96840.16;5019592;28;20045;-83
2022/11/22 05:03:46;;;;;;;22.73;12.00;;;;;;;2.27;86.38;96843.81;5005117;28;20488;-83
2022/11/22 05:06:13;;;;;;;23.20;12.45;;;;;;;2.19;87.57;96835.56;5034224;28;20048;-83
2022/11/22 05:08:38;;;;;;;22.42;12.23;;;;;;;2.25;86.14;96827.47;5019424;28;20494;-83
2022/11/22 05:11:04;;;;;;;22.58;14.13;;;;;;;2.30;85.61;96821.47;5004605;28;20090;-84
2022/11/22 05:13:32;;;;;;;17.98;11.20;;;;;;;2.45;85.45;96845.34;5014210;28;20029;-83
2022/11/22 05:16:00;;;;;;;18.02;11.85;;;;;;;2.40;85.69;96839.25;5018111;28;20134;-83
2022/11/22 05:18:27;;;;;;;18.58;12.05;;;;;;;2.44;85.50;96841.13;5023537;28;20523;-84
2022/11/22 05:20:53;;;;;;;17.58;10.82;;;;;;;2.43;85.62;96833.47;5015556;28;20029;-83
2022/11/22 05:26:04;;;;;;;17.15;11.27;;;;;;;2.46;85.36;96849.56;5020343;28;20507;-83
2022/11/22 05:28:31;;;;;;;19.10;10.63;;;;;;;2.38;85.42;96833.44;5025165;28;20039;-84
2022/11/22 05:30:57;;;;;;;19.33;11.98;;;;;;;2.54;85.25;96843.88;5006343;28;20029;-83
2022/11/22 05:33:23;;;;;;;19.08;12.15;;;;;;;2.29;85.50;96839.09;5023033;28;20504;-83
2022/11/22 05:35:48;;;;;;;30.70;11.73;;;;;;;2.42;85.25;96839.78;5025909;28;20469;-84
2022/11/22 05:38:14;;;;;;;19.30;11.75;;;;;;;2.42;84.96;96827.44;5022009;28;20033;-83
2022/11/22 05:40:39;;;;;;;19.75;10.75;;;;;;;2.54;84.90;96843.88;5019551;28;20064;-83
2022/11/22 05:43:04;;;;;;;20.48;13.48;;;;;;;2.32;84.62;96808.06;5026309;28;20041;-83
2022/11/22 05:45:30;;;;;;;18.45;10.73;;;;;;;2.32;84.68;96816.75;5029020;28;20492;-83
2022/11/22 05:47:56;;;;;;;22.50;11.82;;;;;;;2.50;84.35;96834.06;5011486;28;20029;-83
2022/11/22 05:50:21;;;;;;;19.63;11.25;;;;;;;2.47;84.74;96840.63;5026390;28;20033;-83
2022/11/22 05:52:47;;;;;;;19.67;11.57;;;;;;;2.35;85.49;96841.78;5023211;28;20398;-84
2022/11/22 05:55:12;;;;;;;18.80;11.90;;;;;;;2.62;84.89;96858.44;5005942;28;20494;-83
2022/11/22 05:57:39;;;;;;;19.75;10.65;;;;;;;2.64;84.82;96856.38;5019164;28;20076;-83
2022/11/22 06:00:05;;;;;;;20.80;13.30;;;;;;;2.17;85.86;96854.22;5005858;28;20026;-83
2022/11/22 06:02:31;;;;;;;20.15;13.57;;;;;;;2.20;85.67;96861.63;5021384;28;20029;-83
2022/11/22 06:04:56;;;;;;;22.38;12.45;;;;;;;2.15;86.48;96866.84;5028868;28;20022;-83
2022/11/22 06:07:21;;;;;;;22.67;13.95;;;;;;;1.46;89.02;96847.16;5026653;28;20038;-83
2022/11/22 06:09:47;;;;;;;21.98;13.18;;;;;;;1.30;91.08;96860.31;5021768;28;20034;-83
2022/11/22 06:12:12;;;;;;;20.40;12.68;;;;;;;2.04;87.72;96875.63;5007658;28;20037;-82
2022/11/22 06:14:38;;;;;;;29.15;14.77;;;;;;;1.21;90.83;96869.59;5010496;28;20401;-83
2022/11/22 06:17:03;;;;;;;28.13;16.10;;;;;;;1.61;89.33;96862.38;5026924;28;20031;-82
2022/11/22 06:19:28;;;;;;;22.23;14.30;;;;;;;2.07;87.42;96898.84;5026392;28;20063;-82
2022/11/22 06:21:54;;;;;;;27.25;16.00;;;;;;;2.04;87.14;96893.25;5023282;28;20057;-82
2022/11/22 06:24:19;;;;;;;20.77;12.68;;;;;;;2.30;87.18;96879.38;5008456;28;20061;-82
2022/11/22 06:26:44;;;;;;;27.25;15.93;;;;;;;1.92;86.62;96874.13;5026518;28;20033;-82
2022/11/22 06:29:10;;;;;;;23.20;12.98;;;;;;;1.86;88.98;96878.50;5008899;28;20029;-81
2022/11/22 06:31:36;;;;;;;20.05;12.45;;;;;;;2.30;86.32;96866.22;5020152;28;20053;-82
2022/11/22 06:34:01;;;;;;;21.75;11.80;;;;;;;2.49;85.48;96872.75;5027252;28;20028;-82
2022/11/22 06:36:32;;;;;;;19.73;12.65;;;;;;;2.31;86.00;96886.25;5028676;28;20053;-82
2022/11/22 06:38:57;;;;;;;21.02;12.70;;;;;;;2.09;87.13;96873.06;5028133;28;20041;-82
2022/11/22 06:41:25;;;;;;;22.52;12.07;;;;;;;2.53;85.78;96883.63;5028902;28;20076;-82
2022/11/22 06:43:52;;;;;;;17.17;10.93;;;;;;;2.56;85.52;96889.19;5026050;28;20422;-82
2022/11/22 06:46:20;;;;;;;21.52;12.93;;;;;;;2.55;85.34;96887.59;5025330;28;20021;-82
2022/11/22 06:48:46;;;;;;;17.08;10.65;;;;;;;2.35;86.13;96871.56;5033406;28;21476;-81
2022/11/22 06:51:23;;;;;;;20.02;12.10;;;;;;;2.31;85.66;96861.75;5017553;28;20397;-82
2022/11/22 06:53:49;;;;;;;23.58;11.00;;;;;;;2.37;85.14;96872.09;5024164;28;20060;-82
2022/11/22 06:56:20;;;;;;;16.88;11.35;;;;;;;2.57;84.82;96897.88;5013366;28;20065;-82
2022/11/22 06:58:47;;;;;;;19.15;10.75;;;;;;;2.42;85.44;96885.34;5027534;28;20048;-82
2022/11/22 07:01:14;;;;;;;19.02;10.88;;;;;;;2.46;85.20;96915.41;5025721;28;20034;-82
2022/11/22 07:03:40;;;;;;;12.70;9.25;;;;;;;2.42;85.66;96910.84;5028192;28;20039;-82
2022/11/22 07:06:07;;;;;;;16.13;10.38;;;;;;;2.31;86.00;96893.34;5029871;28;20022;-82
2022/11/22 07:08:34;;;;;;;16.08;10.82;;;;;;;2.40;85.72;96911.13;5027592;28;20087;-82
2022/11/22 07:11:10;;;;;;;15.55;10.23;;;;;;;2.19;85.94;96888.19;5026603;28;20065;-82
2022/11/22 07:13:36;;;;;;;14.52;9.25;;;;;;;2.32;86.51;96922.03;5030728;28;20071;-82
2022/11/22 07:16:04;;;;;;;16.25;10.50;;;;;;;2.41;85.73;96930.31;5030030;28;20477;-82
2022/11/22 07:18:30;;;;;;;16.50;10.25;;;;;;;2.33;85.76;96923.66;5025201;28;20049;-82
2022/11/22 07:21:04;;;;;;;15.38;8.93;;;;;;;2.38;85.74;96926.31;5028265;28;21493;-82
2022/11/22 07:23:29;;;;;;;16.33;10.98;;;;;;;2.34;85.97;96914.69;5029144;28;20038;-82
2022/11/22 07:25:55;;;;;;;17.05;11.40;;;;;;;2.46;86.12;96939.09;5016749;28;20085;-81
2022/11/22 07:28:21;;;;;;;21.35;11.50;;;;;;;2.47;86.13;96943.31;5025902;28;20564;-82
2022/11/22 07:30:46;;;;;;;17.20;11.40;;;;;;;2.29;86.50;96917.28;5030940;28;20472;-82
2022/11/22 07:33:12;;;;;;;17.52;10.85;;;;;;;2.34;86.09;96935.75;5031788;28;20124;-82
2022/11/22 07:35:37;;;;;;;15.60;10.68;;;;;;;2.51;86.04;96948.88;5016679;28;20037;-81
2022/11/22 07:38:03;;;;;;;18.02;12.68;;;;;;;2.60;85.76;96950.06;5033095;28;20109;-82
2022/11/22 07:40:29;;;;;;;15.18;10.65;;;;;;;2.65;85.25;96932.47;5034619;28;20051;-82
2022/11/22 07:42:54;;;;;;;16.92;11.23;;;;;;;2.74;84.92;96952.09;5031987;28;20116;-81
2022/11/22 07:45:20;;;;;;;17.65;11.45;;;;;;;2.58;85.38;96941.63;5031066;28;20026;-80
2022/11/22 07:47:45;;;;;;;16.33;9.48;;;;;;;2.61;85.44;96955.09;5013010;28;20034;-81
2022/11/22 07:50:11;;;;;;;15.07;9.38;;;;;;;2.58;85.53;96946.88;5013409;28;20052;-82
2022/11/22 07:52:36;;;;;;;18.00;10.85;;;;;;;2.53;85.51;96955.50;5016043;28;20034;-82
2022/11/22 07:55:02;;;;;;;15.55;10.13;;;;;;;2.58;86.20;96979.25;5007378;28;20041;-82
2022/11/22 07:57:28;;;;;;;14.00;9.85;;;;;;;2.39;86.46;96954.25;5021294;28;20037;-82
2022/11/22 07:59:53;;;;;;;16.90;10.35;;;;;;;2.39;86.36;96959.53;5026051;28;20033;-82
2022/11/22 08:02:19;;;;;;;14.00;9.93;;;;;;;2.53;86.23;96965.25;5015827;28;20032;-82
2022/11/22 08:04:44;;;;;;;19.05;10.27;;;;;;;2.56;86.21;96980.53;5031264;28;20041;-81
2022/11/22 08:07:11;;;;;;;14.50;9.48;;;;;;;2.68;85.10;96968.88;5032393;28;20623;-82
2022/11/22 08:09:36;;;;;;;17.73;10.60;;;;;;;2.68;85.57;96973.34;5032517;28;20120;-83
2022/11/22 08:12:02;;;;;;;15.60;10.85;;;;;;;2.81;85.10;96971.16;5033791;28;20108;-82
2022/11/22 08:14:27;;;;;;;19.13;11.55;;;;;;;2.67;85.39;96964.63;5032607;28;20025;-81
2022/11/22 08:16:53;;;;;;;17.75;10.05;;;;;;;2.83;85.23;96984.06;5022403;28;20078;-82
2022/11/22 08:19:19;;;;;;;13.93;9.82;;;;;;;2.60;85.90;96971.91;5032245;28;20036;-82
2022/11/22 08:21:45;;;;;;;15.65;10.52;;;;;;;2.80;85.78;96990.59;5032527;28;20029;-82
2022/11/22 08:24:11;;;;;;;18.70;9.30;;;;;;;2.63;86.45;96973.25;5027292;28;20036;-81
2022/11/22 08:26:37;;;;;;;20.42;10.85;;;;;;;2.77;85.71;96974.50;5032970;28;20506;-81
2022/11/22 08:29:04;;;;;;;16.73;10.60;;;;;;;3.05;85.22;96990.13;5031369;28;20120;-81
2022/11/22 08:31:29;;;;;;;14.68;9.68;;;;;;;3.19;84.89;96982.66;5046811;28;20037;-82
2022/11/22 08:33:54;;;;;;;15.02;9.68;;;;;;;3.04;84.77;96984.06;5011090;28;20034;-82
2022/11/22 08:36:20;;;;;;;14.65;9.93;;;;;;;3.15;85.23;97003.41;5032510;28;20033;-82
2022/11/22 08:38:45;;;;;;;14.10;8.90;;;;;;;3.14;84.98;96999.19;5029944;28;20465;-82
2022/11/22 08:41:11;;;;;;;14.77;9.65;;;;;;;3.17;85.22;96990.78;5014578;28;20042;-82
2022/11/22 08:43:36;;;;;;;13.07;9.18;;;;;;;3.29;84.39;97004.63;5025182;28;20093;-82
2022/11/22 08:46:02;;;;;;;11.38;8.52;;;;;;;3.19;84.63;96985.28;5030521;28;20032;-81
2022/11/22 08:48:30;;;;;;;11.55;8.63;;;;;;;3.25;85.03;97000.09;4995481;28;20045;-82
2022/11/22 08:51:01;;;;;;;11.23;8.57;;;;;;;3.39;84.31;97011.84;5032850;28;20037;-83
2022/11/22 08:53:28;;;;;;;12.70;8.65;;;;;;;3.26;83.89;97001.69;5015517;28;20044;-82
2022/11/22 08:55:54;;;;;;;14.40;8.50;;;;;;;3.46;83.94;97028.28;5032115;28;20108;-82
2022/11/22 08:58:21;;;;;;;12.18;8.85;;;;;;;3.29;84.36;97007.28;5031229;28;20052;-82
2022/11/22 09:00:46;;;;;;;17.77;10.35;;;;;;;3.45;84.10;97031.97;5032260;28;20032;-82
2022/11/22 09:03:12;;;;;;;12.52;9.48;;;;;;;3.44;84.30;97028.53;5032772;28;20452;-82
2022/11/22 09:05:37;;;;;;;12.57;9.35;;;;;;;3.43;84.66;97020.88;5030090;28;20060;-82
2022/11/22 09:08:03;;;;;;;13.20;8.55;;;;;;;3.59;83.42;97033.16;5028872;28;20084;-82
2022/11/22 09:10:28;;;;;;;10.05;8.00;;;;;;;3.68;82.92;97042.22;5013868;28;20068;-82
2022/11/22 09:12:54;;;;;;;10.38;7.78;;;;;;;3.59;83.25;97017.34;5028236;28;20072;-82
2022/11/22 09:15:19;;;;;;;13.85;8.32;;;;;;;3.49;83.56;97019.88;5032535;28;20394;-82
2022/11/22 09:17:45;;;;;;;11.23;7.47;;;;;;;3.61;83.12;97021.31;5029988;28;20312;-81
2022/11/22 09:20:11;;;;;;;12.60;8.18;;;;;;;3.64;82.85;97025.31;5014237;28;20517;-82
2022/11/22 09:22:36;;;;;;;12.23;8.30;;;;;;;3.82;83.40;97054.00;5031099;28;20036;-82
2022/11/22 09:25:04;;;;;;;11.80;6.82;;;;;;;3.83;82.34;97057.41;5032204;28;20017;-82
2022/11/22 09:27:31;;;;;;;11.93;7.13;;;;;;;3.72;83.52;97051.22;5014238;28;20029;-82
2022/11/22 09:29:57;;;;;;;12.02;8.10;;;;;;;3.75;83.16;97061.31;5032339;28;20029;-82
2022/11/22 09:32:22;;;;;;;11.25;8.45;;;;;;;3.56;83.64;97038.94;5005648;28;20056;-81
2022/11/22 09:34:48;;;;;;;13.63;7.60;;;;;;;3.74;84.01;97047.31;5027734;28;20032;-81
2022/11/22 09:37:17;;;;;;;9.93;8.20;;;;;;;3.81;83.74;97073.50;4997824;28;20033;-82
2022/11/22 09:39:45;;;;;;;11.55;8.20;;;;;;;3.72;83.63;97049.41;5032001;28;20094;-81
2022/11/22 09:42:38;;;;;;;14.30;7.88;;;;;;;3.78;83.66;97063.41;5030977;28;20087;-81
2022/11/22 09:45:34;;;;;;;14.05;9.80;;;;;;;3.55;85.49;97058.44;5030721;28;20025;-81
2022/11/22 09:48:54;;;;;;;10.75;8.15;;;;;;;3.73;83.58;97053.63;5029071;28;20029;-82
2022/11/22 09:51:33;;;;;;;13.43;8.95;;;;;;;3.59;83.93;97033.16;5005020;28;20053;-82
2022/11/22 09:54:07;;;;;;;12.02;9.38;;;;;;;3.75;83.82;97075.28;5031756;28;20041;-82
2022/11/22 09:56:33;;;;;;;10.60;8.27;;;;;;;3.56;84.17;97057.41;5031681;28;20036;-82
2022/11/22 09:59:14;;;;;;;19.80;11.20;;;;;;;3.44;85.14;97062.00;5030192;28;20397;-82
2022/11/22 10:01:57;;;;;;;13.77;8.88;;;;;;;3.65;84.64;97059.34;5032054;28;20159;-82
2022/11/22 10:04:34;;;;;;;10.98;8.77;;;;;;;3.46;85.27;97057.28;5030858;28;20025;-82
2022/11/22 10:07:24;;;;;;;13.13;8.05;;;;;;;3.75;84.33;97075.28;5029084;28;20021;-81
2022/11/22 10:09:56;;;;;;;8.18;7.07;;;;;;;3.76;83.61;97066.31;5032003;28;20041;-81
2022/11/22 10:12:30;;;;;;;11.20;8.23;;;;;;;3.76;84.20;97066.31;5030503;28;20029;-82
2022/11/22 10:15:14;;;;;;;12.90;7.82;;;;;;;3.72;83.59;97059.16;5029470;28;20063;-82
2022/11/22 10:18:00;;;;;;;13.50;8.68;;;;;;;3.80;84.23;97070.06;5025808;28;20191;-82
2022/11/22 10:20:40;;;;;;;15.55;9.55;;;;;;;3.65;86.16;97072.53;5028462;28;20029;-82
2022/11/22 10:23:23;;;;;;;12.20;7.75;;;;;;;3.91;84.79;97052.47;5031575;28;20499;-83
2022/11/22 10:26:02;;;;;;;12.77;8.40;;;;;;;3.94;84.78;97051.19;5030356;28;20024;-82
2022/11/22 10:28:31;;;;;;;13.07;7.88;;;;;;;3.90;83.98;97036.91;5030343;28;20092;-82
2022/11/22 10:31:13;;;;;;;10.45;7.68;;;;;;;4.00;84.06;97037.78;5030947;28;20029;-82
2022/11/22 10:33:59;;;;;;;10.02;7.28;;;;;;;4.16;83.44;97042.16;5030002;28;20018;-82
2022/11/22 10:36:45;;;;;;;10.60;7.22;;;;;;;4.20;83.03;97024.75;5029684;28;20029;-82
2022/11/22 10:39:18;;;;;;;15.35;8.32;;;;;;;4.34;83.75;97022.50;5030539;28;20029;-82
2022/11/22 10:41:49;;;;;;;14.57;7.90;;;;;;;4.11;84.29;97020.19;5029710;28;20626;-81
2022/11/22 10:44:23;;;;;;;9.18;7.22;;;;;;;4.27;82.99;97013.97;5031530;28;20456;-82
2022/11/22 10:47:05;;;;;;;8.90;6.88;;;;;;;4.30;83.62;97011.63;5029377;28;20022;-81
2022/11/22 10:49:50;;;;;;;8.80;6.30;;;;;;;4.38;83.33;96994.50;5011556;28;20025;-82
2022/11/22 10:52:37;;;;;;;10.80;7.75;;;;;;;4.44;82.71;97006.69;5011811;28;20041;-81
2022/11/22 10:55:17;;;;;;;9.43;6.10;;;;;;;4.48;83.76;96999.84;5018391;28;20036;-81
2022/11/22 10:58:14;;;;;;;7.50;5.60;;;;;;;4.57;83.25;96995.69;5030982;28;20493;-81
2022/11/22 11:00:44;;;;;;;11.45;6.13;;;;;;;4.58;83.24;96989.38;5031209;28;20851;-82
2022/11/22 11:03:24;;;;;;;13.52;6.65;;;;;;;4.65;83.55;96994.44;5029996;28;20083;-82
2022/11/22 11:05:52;;;;;;;11.20;6.97;;;;;;;4.73;82.97;96994.72;5023846;28;20026;-82
2022/11/22 11:08:41;;;;;;;8.95;6.78;;;;;;;4.83;82.29;96992.13;5029589;28;20087;-82
2022/11/22 11:11:07;;;;;;;8.57;5.93;;;;;;;4.72;82.86;96989.72;5029463;28;20052;-81
2022/11/22 11:13:46;;;;;;;9.85;5.65;;;;;;;4.76;82.58;96988.16;5031423;28;20052;-81
2022/11/22 11:16:17;;;;;;;8.77;5.82;;;;;;;4.75;83.10;96991.81;5030842;28;20060;-81
2022/11/22 11:18:48;;;;;;;9.75;6.22;;;;;;;4.63;83.74;96980.69;5029969;28;20029;-82
2022/11/22 11:21:13;;;;;;;12.43;7.47;;;;;;;4.90;84.17;96989.25;5028629;28;20025;-81
2022/11/22 11:23:40;;;;;;;7.35;6.15;;;;;;;4.82;84.10;96990.56;5025930;28;20116;-82
2022/11/22 11:26:18;;;;;;;12.63;8.75;;;;;;;4.77;85.83;96997.66;5029658;28;20033;-82
2022/11/22 11:28:44;;;;;;;8.95;6.95;;;;;;;4.94;84.16;96998.25;5031066;28;20543;-82
2022/11/22 11:31:12;;;;;;;11.00;6.53;;;;;;;5.00;84.15;97003.31;5030095;28;20529;-82
2022/11/22 11:33:39;;;;;;;16.17;9.55;;;;;;;4.94;85.73;96998.25;5034955;28;20072;-82
2022/11/22 11:36:07;;;;;;;12.93;8.13;;;;;;;4.75;86.71;96994.47;5032353;28;20556;-82
2022/11/22 11:38:34;;;;;;;17.25;10.13;;;;;;;4.88;85.41;96984.22;5032929;28;20112;-82
2022/11/22 11:41:28;;;;;;;11.27;6.38;;;;;;;4.97;84.07;96990.63;5033336;28;20040;-82
2022/11/22 11:43:56;;;;;;;11.57;5.95;;;;;;;4.99;84.26;96980.59;5034496;28;20373;-82
2022/11/22 11:46:27;;;;;;;10.82;6.82;;;;;;;4.95;83.33;96979.50;5034597;28;20028;-82
2022/11/22 11:49:08;;;;;;;14.77;9.38;;;;;;;5.06;84.32;97001.50;5034433;28;20049;-82